Time;durP1;ratioP1;P1;durP2;ratioP2;P2;SDS_P1;SDS_P2;PMS_P1;PMS_P2;Temp;Humidity;BMP_temperature;BMP_pressure;BME280_temperature;BME280_humidity;BME280_pressure;Samples;Min_cycle;Max_cycle;Signal;HPM_P1;HPM_P2
2021/04/08 00:02:04;;;;;;;4.43;1.83;;;2.00;99.60;;;;;;5065808;28;20025;-38
2021/04/08 00:04:30;;;;;;;7.47;1.55;;;2.00;99.60;;;;;;5064749;28;20036;-39
2021/04/08 00:06:56;;;;;;;8.60;1.88;;;1.90;99.60;;;;;;5065199;28;20032;-38
2021/04/08 00:09:22;;;;;;;10.07;1.83;;;1.90;99.60;;;;;;5065563;28;20028;-37
2021/04/08 00:11:47;;;;;;;3.75;1.42;;;1.90;99.60;;;;;;5064940;28;20035;-37
2021/04/08 00:14:14;;;;;;;10.88;1.73;;;1.80;99.60;;;;;;5065282;28;20044;-36
2021/04/08 00:16:42;;;;;;;6.28;1.55;;;1.80;99.70;;;;;;5064375;28;20024;-36
2021/04/08 00:19:08;;;;;;;5.25;1.58;;;1.80;99.70;;;;;;5062908;28;20492;-37
2021/04/08 00:21:34;;;;;;;8.60;1.88;;;1.70;99.70;;;;;;5065338;28;20222;-36
2021/04/08 00:24:00;;;;;;;9.02;2.65;;;1.70;99.70;;;;;;5064404;28;20456;-37
2021/04/08 00:26:25;;;;;;;10.65;2.00;;;1.70;99.70;;;;;;5064797;28;20121;-38
2021/04/08 00:28:51;;;;;;;12.80;1.98;;;1.70;99.80;;;;;;5064914;28;20158;-38
2021/04/08 00:31:17;;;;;;;7.80;1.92;;;1.70;99.80;;;;;;5064458;28;20205;-35
2021/04/08 00:33:43;;;;;;;7.70;1.80;;;1.70;99.80;;;;;;5065390;28;20035;-35
2021/04/08 00:36:08;;;;;;;9.40;1.83;;;1.60;99.70;;;;;;5064804;28;20028;-35
2021/04/08 00:38:34;;;;;;;7.95;1.70;;;1.60;99.80;;;;;;5064218;28;20451;-38
2021/04/08 00:41:00;;;;;;;10.38;2.70;;;1.60;99.80;;;;;;5064434;28;20024;-36
2021/04/08 00:43:26;;;;;;;5.55;1.63;;;1.60;99.80;;;;;;5064613;28;20074;-37
2021/04/08 00:45:52;;;;;;;6.38;1.83;;;1.60;99.80;;;;;;5063958;28;20040;-38
2021/04/08 00:48:17;;;;;;;8.57;1.90;;;1.60;99.80;;;;;;5065152;28;20021;-36
2021/04/08 00:50:43;;;;;;;6.40;1.50;;;1.50;99.70;;;;;;5064792;28;20028;-39
2021/04/08 00:53:13;;;;;;;4.88;1.40;;;1.50;99.80;;;;;;5064108;28;20035;-38
2021/04/08 00:55:43;;;;;;;4.05;1.60;;;1.50;99.90;;;;;;5064457;28;20032;-38
2021/04/08 00:58:10;;;;;;;9.00;2.03;;;1.50;99.70;;;;;;5064618;28;20036;-34
2021/04/08 01:00:39;;;;;;;5.72;1.55;;;1.40;99.70;;;;;;5063872;28;20798;-39
2021/04/08 01:03:06;;;;;;;4.95;1.55;;;1.40;99.80;;;;;;5064486;28;20043;-38
2021/04/08 01:05:32;;;;;;;6.70;1.75;;;1.40;99.90;;;;;;5063864;28;20028;-38
2021/04/08 01:07:57;;;;;;;4.85;1.85;;;1.40;99.90;;;;;;5064456;28;20031;-39
2021/04/08 01:10:25;;;;;;;5.63;2.10;;;1.40;99.90;;;;;;5064869;28;20367;-36
2021/04/08 01:13:00;;;;;;;4.40;2.03;;;1.40;99.90;;;;;;5063869;28;20793;-38
2021/04/08 01:15:26;;;;;;;5.75;2.25;;;1.40;99.90;;;;;;5064208;28;20034;-38
2021/04/08 01:18:16;;;;;;;7.60;2.58;;;1.40;99.90;;;;;;5060228;28;20036;-38
2021/04/08 01:21:10;;;;;;;7.55;2.65;;;1.30;99.90;;;;;;5064068;28;20029;-38
2021/04/08 01:24:00;;;;;;;5.05;2.00;;;1.30;99.90;;;;;;5053818;28;20039;-35
2021/04/08 01:27:12;;;;;;;4.35;2.05;;;1.30;99.90;;;;;;5063818;28;20655;-39
2021/04/08 01:30:08;;;;;;;5.07;2.00;;;1.30;99.90;;;;;;5064186;28;20051;-38
2021/04/08 01:32:39;;;;;;;7.60;2.05;;;1.20;99.90;;;;;;5063908;28;20048;-41
2021/04/08 01:35:07;;;;;;;4.30;2.05;;;1.20;99.90;;;;;;5063733;28;20028;-38
2021/04/08 01:37:39;;;;;;;7.10;2.25;;;1.20;99.90;;;;;;5063745;28;20020;-36
2021/04/08 01:40:07;;;;;;;7.35;3.83;;;1.20;99.90;;;;;;5064676;28;20064;-38
2021/04/08 01:42:33;;;;;;;5.53;2.08;;;1.20;99.90;;;;;;5061956;28;20017;-34
2021/04/08 01:45:01;;;;;;;7.10;1.98;;;1.20;99.90;;;;;;5063636;28;20059;-38
2021/04/08 01:47:29;;;;;;;5.90;2.00;;;1.30;99.90;;;;;;5064119;28;20105;-36
2021/04/08 01:49:56;;;;;;;4.45;2.00;;;1.20;99.90;;;;;;5063376;28;20033;-36
2021/04/08 01:52:23;;;;;;;2.67;1.40;;;1.30;99.90;;;;;;5064053;28;20099;-37
2021/04/08 01:54:57;;;;;;;4.50;1.83;;;1.30;99.90;;;;;;5063365;28;20432;-42
2021/04/08 01:57:25;;;;;;;5.40;1.88;;;1.40;99.90;;;;;;5064113;28;20382;-37
2021/04/08 01:59:53;;;;;;;6.28;1.70;;;1.50;99.90;;;;;;5063508;28;20234;-39
2021/04/08 02:02:18;;;;;;;6.45;1.95;;;1.50;99.90;;;;;;5063545;28;20021;-38
2021/04/08 02:04:45;;;;;;;7.15;2.25;;;1.60;99.90;;;;;;5063633;28;20029;-38
2021/04/08 02:07:11;;;;;;;7.80;3.55;;;1.60;99.90;;;;;;5063614;28;20025;-37
2021/04/08 02:09:38;;;;;;;6.68;1.88;;;1.80;99.90;;;;;;5063586;28;20028;-37
2021/04/08 02:12:07;;;;;;;5.57;2.08;;;1.80;99.90;;;;;;5063604;28;20025;-37
2021/04/08 02:14:35;;;;;;;4.80;2.17;;;1.90;99.90;;;;;;5063372;28;20073;-34
2021/04/08 02:17:02;;;;;;;7.00;2.03;;;1.90;99.90;;;;;;5063711;28;20025;-36
2021/04/08 02:19:30;;;;;;;5.63;1.38;;;2.00;99.90;;;;;;5063455;28;20055;-36
2021/04/08 02:21:57;;;;;;;2.78;1.40;;;2.00;99.80;;;;;;5064011;28;20135;-39
2021/04/08 02:24:24;;;;;;;9.05;1.75;;;2.10;99.80;;;;;;5063567;28;20089;-38
2021/04/08 02:26:56;;;;;;;7.03;2.03;;;2.10;99.70;;;;;;5063544;28;20123;-39
2021/04/08 02:29:29;;;;;;;5.05;1.33;;;2.10;99.70;;;;;;5063560;28;20357;-38
2021/04/08 02:31:56;;;;;;;7.95;1.67;;;2.10;99.60;;;;;;5063287;28;20032;-38
2021/04/08 02:34:22;;;;;;;5.18;1.80;;;2.20;99.60;;;;;;5063708;28;20103;-38
2021/04/08 02:36:47;;;;;;;2.67;1.30;;;2.20;99.60;;;;;;5063315;28;20048;-39
2021/04/08 02:39:13;;;;;;;7.13;1.63;;;2.20;99.50;;;;;;5063344;28;20031;-36
2021/04/08 02:41:45;;;;;;;2.47;1.05;;;2.20;99.50;;;;;;5065600;28;20024;-37
2021/04/08 02:44:11;;;;;;;6.00;1.23;;;2.20;99.40;;;;;;5066162;28;20037;-37
2021/04/08 02:46:37;;;;;;;4.57;1.30;;;2.20;99.40;;;;;;5067450;28;20094;-37
2021/04/08 02:49:03;;;;;;;5.03;1.40;;;2.20;99.40;;;;;;5066579;28;20021;-38
2021/04/08 02:51:55;;;;;;;4.18;1.42;;;2.30;99.40;;;;;;5066546;28;20043;-36
2021/04/08 02:54:43;;;;;;;4.63;1.50;;;2.30;99.40;;;;;;5066680;28;20100;-38
2021/04/08 02:57:24;;;;;;;5.78;1.50;;;2.30;99.40;;;;;;5067100;28;20222;-38
2021/04/08 02:59:54;;;;;;;6.40;2.00;;;2.30;99.30;;;;;;5066595;28;20090;-38
2021/04/08 03:02:26;;;;;;;6.50;1.60;;;2.30;99.30;;;;;;5067012;28;20023;-38
2021/04/08 03:04:56;;;;;;;5.57;1.20;;;2.30;99.40;;;;;;5066793;28;20036;-37
2021/04/08 03:07:37;;;;;;;6.50;1.60;;;2.30;99.40;;;;;;5066967;28;20582;-37
2021/04/08 03:10:04;;;;;;;4.70;1.30;;;2.30;99.40;;;;;;5066759;28;20032;-37
2021/04/08 03:12:33;;;;;;;3.05;1.33;;;2.30;99.30;;;;;;5066073;28;20059;-39
2021/04/08 03:15:00;;;;;;;4.65;1.35;;;2.30;99.30;;;;;;5066780;28;20025;-34
2021/04/08 03:17:30;;;;;;;4.20;1.17;;;2.30;99.30;;;;;;5066508;28;20088;-38
2021/04/08 03:19:58;;;;;;;6.50;1.50;;;2.30;99.40;;;;;;5065769;28;20044;-38
2021/04/08 03:22:24;;;;;;;5.03;1.38;;;2.40;99.30;;;;;;5066875;28;20028;-40
2021/04/08 03:24:54;;;;;;;7.25;1.48;;;2.30;99.30;;;;;;5066054;28;20036;-39
2021/04/08 03:27:20;;;;;;;6.38;1.60;;;2.40;99.40;;;;;;5065964;28;20131;-39
2021/04/08 03:29:47;;;;;;;6.00;1.48;;;2.40;99.40;;;;;;5066893;28;20027;-39
2021/04/08 03:32:17;;;;;;;6.30;1.63;;;2.40;99.40;;;;;;5065127;28;20046;-39
2021/04/08 03:34:43;;;;;;;9.07;1.77;;;2.40;99.40;;;;;;5065709;28;20494;-38
2021/04/08 03:37:09;;;;;;;5.05;1.27;;;2.40;99.40;;;;;;5066476;28;20025;-36
2021/04/08 03:39:35;;;;;;;4.95;1.70;;;2.40;99.30;;;;;;5066261;28;20040;-39
2021/04/08 03:42:01;;;;;;;5.03;1.65;;;2.40;99.30;;;;;;5065541;28;20031;-39
2021/04/08 03:44:29;;;;;;;3.22;1.02;;;2.50;99.30;;;;;;5066109;28;20749;-40
2021/04/08 03:46:58;;;;;;;5.63;1.50;;;2.50;99.30;;;;;;5065724;28;20040;-38
2021/04/08 03:49:26;;;;;;;6.63;1.50;;;2.50;99.20;;;;;;5065781;28;20194;-40
2021/04/08 03:51:53;;;;;;;7.55;1.83;;;2.50;99.20;;;;;;5064979;28;20433;-40
2021/04/08 03:54:21;;;;;;;4.38;1.63;;;2.50;99.20;;;;;;5065380;28;20081;-39
2021/04/08 03:56:49;;;;;;;3.75;1.23;;;2.50;99.20;;;;;;5065327;28;20196;-39
2021/04/08 03:59:17;;;;;;;5.90;1.80;;;2.50;99.10;;;;;;5065974;28;20059;-38
2021/04/08 04:01:44;;;;;;;6.32;2.65;;;2.60;99.10;;;;;;5065484;28;20108;-39
2021/04/08 04:04:10;;;;;;;4.15;1.40;;;2.60;99.10;;;;;;5065979;28;20438;-38
2021/04/08 04:06:37;;;;;;;4.47;1.58;;;2.60;99.10;;;;;;5066045;28;20063;-37
2021/04/08 04:09:04;;;;;;;5.45;1.50;;;2.60;99.10;;;;;;5065021;28;20332;-38
2021/04/08 04:11:32;;;;;;;2.97;1.33;;;2.60;99.10;;;;;;5065567;28;20043;-38
2021/04/08 04:14:00;;;;;;;2.88;1.85;;;2.60;99.10;;;;;;5065633;28;20131;-39
2021/04/08 04:16:26;;;;;;;4.25;1.40;;;2.70;99.10;;;;;;5065060;28;20445;-39
2021/04/08 04:18:52;;;;;;;4.47;1.90;;;2.70;99.00;;;;;;5065178;28;20436;-39
2021/04/08 04:21:17;;;;;;;4.68;1.70;;;2.70;99.00;;;;;;5066070;28;20132;-36
2021/04/08 04:23:43;;;;;;;4.18;1.60;;;2.70;99.00;;;;;;5065087;28;20032;-38
2021/04/08 04:26:09;;;;;;;3.70;1.60;;;2.70;99.00;;;;;;5065627;28;20036;-38
2021/04/08 04:28:34;;;;;;;1.95;1.45;;;2.70;99.00;;;;;;5065252;28;20036;-38
2021/04/08 04:31:00;;;;;;;3.22;1.63;;;2.70;99.00;;;;;;5064851;28;20471;-38
2021/04/08 04:33:25;;;;;;;2.55;1.67;;;2.60;99.00;;;;;;5064723;28;20023;-38
2021/04/08 04:35:56;;;;;;;5.75;1.55;;;2.60;99.00;;;;;;5065862;28;20028;-42
2021/04/08 04:38:22;;;;;;;6.18;2.78;;;2.60;99.00;;;;;;5064745;28;20727;-40
2021/04/08 04:40:50;;;;;;;4.13;1.15;;;2.60;99.00;;;;;;5064636;28;20029;-40
2021/04/08 04:43:16;;;;;;;3.75;1.35;;;2.60;99.00;;;;;;5064939;28;20017;-38
2021/04/08 04:45:41;;;;;;;6.13;1.40;;;2.60;99.00;;;;;;5064440;28;20032;-37
2021/04/08 04:48:10;;;;;;;3.05;1.10;;;2.60;99.00;;;;;;5064908;28;20016;-38
2021/04/08 04:50:36;;;;;;;3.58;1.50;;;2.60;99.00;;;;;;5064482;28;20116;-37
2021/04/08 04:53:01;;;;;;;3.97;1.40;;;2.60;99.00;;;;;;5064592;28;20096;-36
2021/04/08 04:55:27;;;;;;;5.03;1.40;;;2.60;99.00;;;;;;5064633;28;20055;-36
2021/04/08 04:57:52;;;;;;;6.20;1.70;;;2.60;99.00;;;;;;5063929;28;20031;-40
2021/04/08 05:00:21;;;;;;;2.40;1.40;;;2.60;99.00;;;;;;5064878;28;20017;-37
2021/04/08 05:02:47;;;;;;;2.70;1.42;;;2.60;99.00;;;;;;5064706;28;20051;-39
2021/04/08 05:05:13;;;;;;;4.57;1.50;;;2.60;99.00;;;;;;5064018;28;20044;-33
2021/04/08 05:07:42;;;;;;;5.38;1.75;;;2.60;99.00;;;;;;5064510;28;20094;-39
2021/04/08 05:10:08;;;;;;;2.92;1.13;;;2.60;99.00;;;;;;5064451;28;20370;-38
2021/04/08 05:12:38;;;;;;;2.35;1.20;;;2.70;99.00;;;;;;5063703;28;20581;-38
2021/04/08 05:15:07;;;;;;;3.75;1.42;;;2.70;99.00;;;;;;5064804;28;20028;-42
2021/04/08 05:17:33;;;;;;;1.50;1.27;;;2.70;99.00;;;;;;5064368;28;20047;-38
2021/04/08 05:19:58;;;;;;;1.63;1.08;;;2.70;99.00;;;;;;5063601;28;20451;-35
2021/04/08 05:22:25;;;;;;;3.40;1.50;;;2.70;98.90;;;;;;5064691;28;20660;-39
2021/04/08 05:24:51;;;;;;;2.75;1.45;;;2.80;99.00;;;;;;5063804;28;20379;-38
2021/04/08 05:27:17;;;;;;;2.33;1.30;;;2.80;98.90;;;;;;5064221;28;20056;-39
2021/04/08 05:29:43;;;;;;;3.70;1.50;;;2.80;98.90;;;;;;5064409;28;20106;-40
2021/04/08 05:32:11;;;;;;;2.22;1.20;;;2.80;98.90;;;;;;5064253;28;20093;-41
2021/04/08 05:34:37;;;;;;;3.25;1.38;;;2.80;98.90;;;;;;5063880;28;20103;-38
2021/04/08 05:37:02;;;;;;;3.00;1.65;;;2.80;98.90;;;;;;5064523;28;20166;-38
2021/04/08 05:39:28;;;;;;;4.15;1.40;;;2.80;98.90;;;;;;5063956;28;20028;-36
2021/04/08 05:41:57;;;;;;;2.70;1.40;;;2.90;98.90;;;;;;5064027;28;20104;-38
2021/04/08 05:44:23;;;;;;;3.00;1.48;;;2.90;98.90;;;;;;5062946;28;20029;-38
2021/04/08 05:46:48;;;;;;;2.47;1.60;;;2.90;98.90;;;;;;5062693;28;20052;-38
2021/04/08 05:49:14;;;;;;;3.88;1.50;;;3.00;98.90;;;;;;5049393;28;20078;-39
2021/04/08 05:51:40;;;;;;;5.43;1.80;;;3.00;98.90;;;;;;5063197;28;20031;-37
2021/04/08 05:54:08;;;;;;;2.58;1.80;;;3.00;98.80;;;;;;5064152;28;20036;-38
2021/04/08 05:56:34;;;;;;;5.65;2.08;;;3.00;98.80;;;;;;5059976;28;20114;-39
2021/04/08 05:59:00;;;;;;;8.10;3.45;;;3.10;98.80;;;;;;5062427;28;20551;-35
2021/04/08 06:01:25;;;;;;;6.70;3.35;;;3.10;98.80;;;;;;5062283;28;20452;-42
2021/04/08 06:03:53;;;;;;;6.63;3.58;;;3.10;98.80;;;;;;5062819;28;20017;-38
2021/04/08 06:06:22;;;;;;;4.20;3.35;;;3.10;98.70;;;;;;5063122;28;20810;-34
2021/04/08 06:08:47;;;;;;;5.85;4.03;;;3.10;98.70;;;;;;5063725;28;20122;-40
2021/04/08 06:11:13;;;;;;;5.03;3.33;;;3.20;98.80;;;;;;5063025;28;20553;-38
2021/04/08 06:13:39;;;;;;;4.60;3.30;;;3.30;98.70;;;;;;5063589;28;20044;-36
2021/04/08 06:16:05;;;;;;;7.70;3.40;;;3.30;98.70;;;;;;5060234;28;20039;-37
2021/04/08 06:18:30;;;;;;;6.65;3.92;;;3.30;98.70;;;;;;5067221;28;20028;-39
2021/04/08 06:20:56;;;;;;;4.65;3.42;;;3.40;98.70;;;;;;5065912;28;20107;-37
2021/04/08 06:23:22;;;;;;;8.63;3.83;;;3.40;98.60;;;;;;5066651;28;20020;-37
2021/04/08 06:25:47;;;;;;;5.70;3.50;;;3.40;98.60;;;;;;5067263;28;20067;-38
2021/04/08 06:28:13;;;;;;;7.32;3.83;;;3.40;98.60;;;;;;5067620;28;20023;-38
2021/04/08 06:30:40;;;;;;;5.82;3.97;;;3.40;98.60;;;;;;5067183;28;20044;-37
2021/04/08 06:33:05;;;;;;;8.25;3.58;;;3.40;98.50;;;;;;5067221;28;20158;-39
2021/04/08 06:35:31;;;;;;;7.95;4.13;;;3.30;98.50;;;;;;5067117;28;20099;-38
2021/04/08 06:37:56;;;;;;;7.35;3.80;;;3.30;98.50;;;;;;5066381;28;20195;-38
2021/04/08 06:40:23;;;;;;;7.85;4.18;;;3.20;98.50;;;;;;5067525;28;20401;-38
2021/04/08 06:42:52;;;;;;;9.23;5.05;;;3.10;98.60;;;;;;5067153;28;20046;-39
2021/04/08 06:45:20;;;;;;;9.57;5.30;;;3.00;98.70;;;;;;5067132;28;20131;-39
2021/04/08 06:48:00;;;;;;;11.43;5.40;;;3.00;98.90;;;;;;5066918;28;20425;-38
2021/04/08 06:50:31;;;;;;;6.95;4.30;;;2.90;98.90;;;;;;5066724;28;20028;-38
2021/04/08 06:52:58;;;;;;;7.30;4.32;;;2.90;98.90;;;;;;5066999;28;20024;-38
2021/04/08 06:55:24;;;;;;;10.18;4.70;;;2.90;99.00;;;;;;5066687;28;20464;-39
2021/04/08 06:57:50;;;;;;;7.75;4.70;;;2.90;99.00;;;;;;5066248;28;20036;-37
2021/04/08 07:00:17;;;;;;;8.00;4.40;;;2.90;99.10;;;;;;5066507;28;20029;-38
2021/04/08 07:02:46;;;;;;;8.32;4.45;;;3.00;99.10;;;;;;5066291;28;20136;-39
2021/04/08 07:05:12;;;;;;;7.15;4.88;;;3.00;99.00;;;;;;5066487;28;20120;-39
2021/04/08 07:07:37;;;;;;;11.98;4.95;;;3.10;99.00;;;;;;5066404;28;20120;-37
2021/04/08 07:10:04;;;;;;;7.22;4.70;;;3.20;99.00;;;;;;5055772;28;20071;-36
2021/04/08 07:12:30;;;;;;;10.43;4.53;;;3.30;99.00;;;;;;5065772;28;20031;-38
2021/04/08 07:14:56;;;;;;;8.20;4.80;;;3.40;99.00;;;;;;5066739;28;20028;-35
2021/04/08 07:17:22;;;;;;;6.75;4.57;;;3.50;98.90;;;;;;5067015;28;20036;-37
2021/04/08 07:19:47;;;;;;;7.85;5.05;;;3.70;98.80;;;;;;5064657;28;20139;-38
2021/04/08 07:22:14;;;;;;;8.00;4.65;;;3.90;98.70;;;;;;5066615;28;20035;-36
2021/04/08 07:24:43;;;;;;;5.30;4.30;;;4.10;98.60;;;;;;5066225;28;20070;-39
2021/04/08 07:27:15;;;;;;;7.72;4.30;;;4.30;98.50;;;;;;5065608;28;20032;-39
2021/04/08 07:29:41;;;;;;;7.05;4.13;;;4.50;98.20;;;;;;5066391;28;20028;-38
2021/04/08 07:32:13;;;;;;;4.97;3.70;;;4.70;98.10;;;;;;5064583;28;20048;-38
2021/04/08 07:35:14;;;;;;;5.25;3.70;;;4.80;97.90;;;;;;5065443;28;20496;-36
2021/04/08 07:37:41;;;;;;;8.93;4.28;;;5.00;97.70;;;;;;5046288;28;20117;-37
2021/04/08 07:40:22;;;;;;;6.38;3.70;;;5.10;96.90;;;;;;5063397;28;20035;-40
2021/04/08 07:42:48;;;;;;;5.88;3.97;;;5.10;96.70;;;;;;5065848;28;20060;-37
2021/04/08 07:45:33;;;;;;;7.45;3.88;;;5.10;96.60;;;;;;5066270;28;20145;-36
2021/04/08 07:48:07;;;;;;;8.00;3.97;;;5.10;96.40;;;;;;5065164;28;20119;-38
2021/04/08 07:50:37;;;;;;;5.20;3.40;;;5.10;96.40;;;;;;5065767;28;20106;-37
2021/04/08 07:53:04;;;;;;;7.10;4.03;;;5.00;96.40;;;;;;5066787;28;20047;-39
2021/04/08 07:55:29;;;;;;;4.18;3.60;;;5.00;96.30;;;;;;5065649;28;20144;-35
2021/04/08 07:58:24;;;;;;;5.43;3.70;;;4.90;96.10;;;;;;5065961;28;20132;-38
2021/04/08 08:00:51;;;;;;;7.07;4.18;;;4.90;96.20;;;;;;5055853;28;20101;-38
2021/04/08 08:03:23;;;;;;;7.35;3.92;;;4.90;95.20;;;;;;5066426;28;20039;-43
2021/04/08 08:05:50;;;;;;;7.20;4.07;;;4.80;95.30;;;;;;5065563;28;20122;-36
2021/04/08 08:08:17;;;;;;;6.38;3.90;;;4.80;95.40;;;;;;5064105;28;20071;-37
2021/04/08 08:11:14;;;;;;;6.30;3.58;;;4.80;95.10;;;;;;5065655;28;20085;-37
2021/04/08 08:13:39;;;;;;;6.38;3.35;;;4.70;95.30;;;;;;5045063;28;20493;-38
2021/04/08 08:16:06;;;;;;;7.80;3.97;;;4.70;95.20;;;;;;5060703;28;20025;-40
2021/04/08 08:18:40;;;;;;;8.90;4.35;;;4.70;94.80;;;;;;5065890;28;20028;-39
2021/04/08 08:21:07;;;;;;;4.63;3.75;;;4.70;94.40;;;;;;5065308;28;20035;-39
2021/04/08 08:23:44;;;;;;;8.07;4.63;;;4.80;94.80;;;;;;5065192;28;20120;-36
2021/04/08 08:26:30;;;;;;;6.85;4.03;;;4.80;94.00;;;;;;5055510;28;20502;-38
2021/04/08 08:28:59;;;;;;;5.20;3.95;;;4.90;93.80;;;;;;5065185;28;20016;-39
2021/04/08 08:31:39;;;;;;;5.43;3.58;;;4.90;93.60;;;;;;5064802;28;20358;-39
2021/04/08 08:34:08;;;;;;;7.78;4.00;;;5.00;92.80;;;;;;5065472;28;20031;-39
2021/04/08 08:36:35;;;;;;;5.75;3.40;;;5.10;92.70;;;;;;5064729;28;20027;-39
2021/04/08 08:39:04;;;;;;;4.75;3.50;;;5.30;92.30;;;;;;5064832;28;20032;-44
2021/04/08 08:41:30;;;;;;;5.57;3.35;;;5.30;92.30;;;;;;5064962;28;20081;-36
2021/04/08 08:43:57;;;;;;;8.00;3.40;;;5.40;92.00;;;;;;5064784;28;20032;-39
2021/04/08 08:46:25;;;;;;;8.50;3.13;;;5.40;90.30;;;;;;5065270;28;20036;-37
2021/04/08 08:48:52;;;;;;;6.13;3.30;;;5.50;90.40;;;;;;5064989;28;20531;-39
2021/04/08 08:51:19;;;;;;;6.57;3.30;;;5.60;90.20;;;;;;5065099;28;20129;-38
2021/04/08 08:53:45;;;;;;;5.78;3.17;;;5.70;90.20;;;;;;5065174;28;20435;-39
2021/04/08 08:56:12;;;;;;;4.43;2.75;;;5.90;90.20;;;;;;5064669;28;20013;-38
2021/04/08 08:58:38;;;;;;;4.32;3.55;;;6.10;90.70;;;;;;5064657;28;20465;-39
2021/04/08 09:01:04;;;;;;;7.43;3.55;;;6.30;88.30;;;;;;5064739;28;20024;-37
2021/04/08 09:03:30;;;;;;;7.38;3.97;;;6.40;85.40;;;;;;5065710;28;20016;-39
2021/04/08 09:05:57;;;;;;;6.65;3.35;;;6.50;84.90;;;;;;5065013;28;20387;-39
2021/04/08 09:08:29;;;;;;;5.57;3.30;;;6.50;82.30;;;;;;5064586;28;20433;-38
2021/04/08 09:10:55;;;;;;;8.40;3.97;;;6.40;82.10;;;;;;5064248;28;20151;-37
2021/04/08 09:13:21;;;;;;;7.15;3.25;;;6.40;81.20;;;;;;5064889;28;20167;-39
2021/04/08 09:15:47;;;;;;;5.78;3.25;;;6.40;82.90;;;;;;5064132;28;20028;-42
2021/04/08 09:18:15;;;;;;;6.93;3.63;;;6.40;83.50;;;;;;5063660;28;20041;-37
2021/04/08 09:20:41;;;;;;;7.50;3.28;;;6.50;80.50;;;;;;5065267;28;20377;-38
2021/04/08 09:23:12;;;;;;;5.55;3.60;;;6.60;80.10;;;;;;5060112;28;20020;-39
2021/04/08 09:25:46;;;;;;;6.00;3.45;;;6.70;81.20;;;;;;5065187;28;20862;-38
2021/04/08 09:28:15;;;;;;;4.22;3.20;;;6.90;80.20;;;;;;5062551;28;20032;-38
2021/04/08 09:30:55;;;;;;;6.50;3.10;;;7.10;80.50;;;;;;5064670;28;20116;-39
2021/04/08 09:36:21;;;;;;;5.93;3.80;;;7.40;79.90;;;;;;5064655;28;20426;-36
2021/04/08 09:38:51;;;;;;;5.13;3.90;;;7.40;79.60;;;;;;5064471;28;20396;-40
2021/04/08 09:41:18;;;;;;;8.50;4.10;;;7.40;77.90;;;;;;5064586;28;20027;-39
2021/04/08 09:43:46;;;;;;;10.13;4.25;;;7.30;77.70;;;;;;5064000;28;20078;-38
2021/04/08 09:46:13;;;;;;;4.80;3.95;;;7.20;78.60;;;;;;5064506;28;20032;-35
2021/04/08 09:48:44;;;;;;;5.50;3.97;;;7.30;76.60;;;;;;5064476;28;20110;-39
2021/04/08 09:51:10;;;;;;;9.48;4.70;;;7.50;77.60;;;;;;5065520;28;20431;-38
2021/04/08 09:53:38;;;;;;;5.25;3.97;;;7.70;77.60;;;;;;5067797;28;20815;-40
2021/04/08 09:56:06;;;;;;;4.88;3.78;;;7.90;76.20;;;;;;5068543;28;20028;-39
2021/04/08 09:58:35;;;;;;;9.98;4.38;;;8.10;74.30;;;;;;5068133;28;20020;-39
2021/04/08 10:01:04;;;;;;;6.57;4.18;;;8.20;74.40;;;;;;5068040;28;20020;-42
2021/04/08 10:03:37;;;;;;;6.60;3.97;;;8.30;73.70;;;;;;5068304;28;20021;-35
2021/04/08 10:06:20;;;;;;;5.18;4.22;;;8.40;72.90;;;;;;5065096;28;20028;-40
2021/04/08 10:08:47;;;;;;;7.38;4.95;;;8.40;69.70;;;;;;5067622;28;20024;-36
2021/04/08 10:11:14;;;;;;;6.55;4.05;;;8.50;71.00;;;;;;5060110;28;20028;-40
2021/04/08 10:13:41;;;;;;;6.28;4.78;;;8.60;71.40;;;;;;5065867;28;20055;-39
2021/04/08 10:16:09;;;;;;;6.65;4.50;;;8.60;70.30;;;;;;5067232;28;20024;-41
2021/04/08 10:18:35;;;;;;;7.38;4.63;;;8.70;68.70;;;;;;5064825;28;20016;-35
2021/04/08 10:21:03;;;;;;;6.80;5.35;;;8.70;68.40;;;;;;5067707;28;20043;-40
2021/04/08 10:23:47;;;;;;;6.72;4.35;;;8.80;67.70;;;;;;5067378;28;20029;-39
2021/04/08 10:26:17;;;;;;;7.32;4.68;;;8.70;66.60;;;;;;5064093;28;20483;-38
2021/04/08 10:28:48;;;;;;;6.72;5.25;;;8.80;66.30;;;;;;5063948;27;20091;-38
2021/04/08 10:31:44;;;;;;;4.88;4.30;;;8.80;66.90;;;;;;5066539;28;20029;-39
2021/04/08 10:34:13;;;;;;;7.18;5.10;;;8.80;65.30;;;;;;5048844;28;20436;-37
2021/04/08 10:36:54;;;;;;;8.35;5.20;;;8.80;63.50;;;;;;5067167;28;20060;-38
2021/04/08 10:39:21;;;;;;;7.55;5.35;;;8.80;64.30;;;;;;5067523;28;20024;-36
2021/04/08 10:41:57;;;;;;;6.82;4.95;;;8.80;64.10;;;;;;5067501;28;20020;-40
2021/04/08 10:44:30;;;;;;;7.53;5.68;;;8.80;65.80;;;;;;5067362;28;20029;-38
2021/04/08 10:47:00;;;;;;;7.75;5.43;;;8.80;64.70;;;;;;5064349;28;20047;-39
2021/04/08 10:49:31;;;;;;;6.47;5.30;;;8.70;64.90;;;;;;5066854;28;20025;-39
2021/04/08 10:52:06;;;;;;;6.35;5.00;;;8.70;65.90;;;;;;5066848;28;20341;-38
2021/04/08 10:54:33;;;;;;;8.50;5.50;;;8.80;65.90;;;;;;5067483;28;20020;-37
2021/04/08 10:57:00;;;;;;;8.07;5.18;;;8.80;65.30;;;;;;5066602;28;20062;-36
2021/04/08 10:59:27;;;;;;;7.25;5.10;;;8.80;66.20;;;;;;5067539;28;20450;-39
2021/04/08 11:01:54;;;;;;;10.43;5.75;;;8.80;65.20;;;;;;5066371;28;20106;-39
2021/04/08 11:04:21;;;;;;;7.32;5.38;;;8.90;65.50;;;;;;5066992;28;20107;-39
2021/04/08 11:06:48;;;;;;;10.05;5.75;;;8.90;64.20;;;;;;5067083;28;20028;-36
2021/04/08 11:09:37;;;;;;;7.38;5.35;;;9.00;64.90;;;;;;5067148;28;20485;-36
2021/04/08 11:12:23;;;;;;;9.05;6.22;;;9.00;65.10;;;;;;5066276;28;20020;-37
2021/04/08 11:14:54;;;;;;;6.85;4.80;;;9.10;66.30;;;;;;5046860;28;20104;-39
2021/04/08 11:17:21;;;;;;;7.35;5.53;;;9.20;67.00;;;;;;5063992;28;20396;-38
2021/04/08 11:19:47;;;;;;;7.32;5.65;;;9.20;65.90;;;;;;5066131;28;20090;-37
2021/04/08 11:22:16;;;;;;;7.30;5.60;;;9.30;65.40;;;;;;5066800;28;20024;-37
2021/04/08 11:24:44;;;;;;;7.30;5.35;;;9.30;66.20;;;;;;5065574;28;20519;-39
2021/04/08 11:27:10;;;;;;;6.93;5.22;;;9.40;65.50;;;;;;5066122;28;20039;-40
2021/04/08 11:29:36;;;;;;;5.63;4.90;;;9.40;65.70;;;;;;5066542;28;20041;-39
2021/04/08 11:32:04;;;;;;;8.80;5.13;;;9.50;65.40;;;;;;5066479;28;20487;-38
2021/04/08 11:34:41;;;;;;;7.57;5.55;;;9.60;65.00;;;;;;5066517;28;20147;-38
2021/04/08 11:37:07;;;;;;;10.93;6.03;;;9.60;63.70;;;;;;5066098;28;20032;-39
2021/04/08 11:39:33;;;;;;;8.25;5.57;;;9.60;62.80;;;;;;5065729;28;20029;-36
2021/04/08 11:42:21;;;;;;;6.70;5.28;;;9.60;63.40;;;;;;5065750;28;20023;-38
2021/04/08 11:44:48;;;;;;;8.68;5.80;;;9.70;63.50;;;;;;5065131;28;20557;-38
2021/04/08 11:47:19;;;;;;;8.35;5.93;;;9.70;64.00;;;;;;5066372;28;20218;-39
2021/04/08 11:49:49;;;;;;;7.88;5.95;;;9.70;63.20;;;;;;5066575;28;20452;-35
2021/04/08 11:52:19;;;;;;;8.80;5.82;;;9.70;63.90;;;;;;5066527;28;20104;-38
2021/04/08 11:55:06;;;;;;;6.00;5.43;;;9.60;63.50;;;;;;5065915;28;20024;-39
2021/04/08 11:57:32;;;;;;;8.45;6.13;;;9.50;63.40;;;;;;5066464;28;20295;-38
2021/04/08 12:00:06;;;;;;;9.82;5.95;;;9.40;64.20;;;;;;5065737;28;20031;-36
2021/04/08 12:02:36;;;;;;;6.68;5.97;;;9.40;64.60;;;;;;5065745;28;20356;-36
2021/04/08 12:05:07;;;;;;;7.97;6.05;;;9.40;63.50;;;;;;5066141;28;20518;-37
2021/04/08 12:07:43;;;;;;;9.07;5.82;;;9.40;64.80;;;;;;5064620;28;20044;-38
2021/04/08 12:10:33;;;;;;;7.97;6.30;;;9.40;64.90;;;;;;5055417;28;20808;-37
2021/04/08 12:13:06;;;;;;;10.00;6.40;;;9.50;66.10;;;;;;5064730;28;20048;-39
2021/04/08 12:15:46;;;;;;;7.15;6.40;;;9.60;66.40;;;;;;5065580;28;20020;-38
2021/04/08 12:18:27;;;;;;;9.70;6.05;;;9.70;64.90;;;;;;5066134;28;20334;-38
2021/04/08 12:20:53;;;;;;;8.75;7.03;;;9.80;64.30;;;;;;5065214;28;20029;-38
2021/04/08 12:23:20;;;;;;;9.98;7.40;;;9.80;64.50;;;;;;5065827;28;20032;-38
2021/04/08 12:25:52;;;;;;;9.60;6.93;;;9.80;63.50;;;;;;5065430;28;20032;-38
2021/04/08 12:28:20;;;;;;;11.03;7.17;;;9.80;63.80;;;;;;5064997;28;20028;-38
2021/04/08 12:30:56;;;;;;;9.85;7.10;;;9.80;63.40;;;;;;5050318;28;20037;-38
2021/04/08 12:33:22;;;;;;;10.43;7.38;;;9.80;62.30;;;;;;5059764;28;20114;-38
2021/04/08 12:35:47;;;;;;;12.25;8.00;;;9.80;62.10;;;;;;5064542;28;20025;-36
2021/04/08 12:38:14;;;;;;;10.68;7.85;;;9.70;63.20;;;;;;5065411;28;20097;-38
2021/04/08 12:40:40;;;;;;;10.32;7.38;;;9.70;63.90;;;;;;5061706;28;20028;-36
2021/04/08 12:43:07;;;;;;;9.85;8.30;;;9.80;63.60;;;;;;5064966;28;20064;-39
2021/04/08 12:45:33;;;;;;;10.27;7.68;;;9.80;63.10;;;;;;5064897;28;20121;-39
2021/04/08 12:48:01;;;;;;;9.68;7.28;;;9.80;63.60;;;;;;5065012;28;20051;-38
2021/04/08 12:50:27;;;;;;;9.32;6.90;;;9.90;63.50;;;;;;5064422;28;20029;-38
2021/04/08 12:52:53;;;;;;;11.13;7.32;;;9.90;64.70;;;;;;5065073;28;20027;-38
2021/04/08 12:55:19;;;;;;;9.00;7.25;;;10.00;64.30;;;;;;5065161;28;20093;-36
2021/04/08 12:57:45;;;;;;;9.35;7.50;;;10.00;64.60;;;;;;5064809;28;20558;-39
2021/04/08 13:00:11;;;;;;;9.20;7.30;;;10.10;64.00;;;;;;5064650;28;20029;-38
2021/04/08 13:02:37;;;;;;;8.43;7.32;;;10.10;64.10;;;;;;5064658;28;20025;-40
2021/04/08 13:05:05;;;;;;;9.75;7.35;;;10.10;64.20;;;;;;5064330;28;20341;-38
2021/04/08 13:07:30;;;;;;;11.70;8.25;;;10.10;64.00;;;;;;5064087;28;20040;-38
2021/04/08 13:09:59;;;;;;;11.02;8.00;;;10.10;64.50;;;;;;5063389;28;20035;-38